Time;durP1;ratioP1;P1;durP2;ratioP2;P2;SDS_P1;SDS_P2;PMS_P1;PMS_P2;Temp;Humidity;BMP_temperature;BMP_pressure;BME280_temperature;BME280_humidity;BME280_pressure;Samples;Min_cycle;Max_cycle;Signal;HPM_P1;HPM_P2
2022/04/30 00:00:35;;;;;;;8.98;6.00;;;;;;;12.89;57.82;99688.84;4976402;28;20030;-87
2022/04/30 00:03:01;;;;;;;10.68;6.70;;;;;;;12.90;57.54;99691.25;5015445;28;20033;-87
2022/04/30 00:05:32;;;;;;;8.93;6.40;;;;;;;12.77;58.24;99692.41;4992721;28;20374;-87
2022/04/30 00:07:57;;;;;;;9.10;6.53;;;;;;;12.73;58.15;99679.72;5010180;28;20033;-87
2022/04/30 00:10:23;;;;;;;12.90;7.93;;;;;;;12.62;58.32;99675.25;5008408;28;20388;-87
2022/04/30 00:12:49;;;;;;;9.13;6.43;;;;;;;12.58;58.39;99687.50;4994557;28;20082;-87
2022/04/30 00:15:14;;;;;;;9.30;6.43;;;;;;;12.67;58.71;99680.66;5009891;28;20072;-88
2022/04/30 00:17:40;;;;;;;7.18;6.40;;;;;;;12.58;58.62;99688.28;5006685;28;20063;-87
2022/04/30 00:20:06;;;;;;;11.65;7.60;;;;;;;12.70;58.15;99691.72;4992735;28;20059;-87
2022/04/30 00:22:32;;;;;;;11.02;7.22;;;;;;;12.58;58.86;99695.53;5006349;28;20025;-87
2022/04/30 00:24:57;;;;;;;14.02;6.90;;;;;;;12.63;58.39;99691.06;4991461;28;20056;-87
2022/04/30 00:27:22;;;;;;;9.48;7.20;;;;;;;12.54;58.87;99694.34;4992542;28;20032;-87
2022/04/30 00:29:48;;;;;;;11.40;6.57;;;;;;;12.40;58.72;99701.06;5026981;28;20025;-87
2022/04/30 00:32:15;;;;;;;7.78;6.97;;;;;;;12.63;58.56;99698.28;4990608;28;20026;-87
2022/04/30 00:34:40;;;;;;;16.17;7.57;;;;;;;12.57;58.94;99696.56;5030909;28;20043;-87
2022/04/30 00:37:06;;;;;;;12.00;7.53;;;;;;;12.54;59.05;99689.00;4994361;28;20021;-87
2022/04/30 00:39:35;;;;;;;14.07;7.90;;;;;;;12.48;59.16;99693.47;5010012;28;20041;-87
2022/04/30 00:42:00;;;;;;;10.25;7.90;;;;;;;12.40;58.93;99682.34;5026250;28;20374;-87
2022/04/30 00:44:27;;;;;;;10.60;7.72;;;;;;;12.35;59.61;99688.41;4992606;28;20047;-87
2022/04/30 00:46:53;;;;;;;9.13;7.55;;;;;;;12.35;59.18;99690.25;5002321;28;20080;-88
2022/04/30 00:49:19;;;;;;;12.68;8.23;;;;;;;12.32;59.64;99686.19;5004481;28;20037;-88
2022/04/30 00:51:45;;;;;;;11.63;7.47;;;;;;;12.28;59.63;99684.22;4989920;28;20028;-88
2022/04/30 00:54:12;;;;;;;11.95;8.90;;;;;;;12.27;59.04;99672.72;5006321;28;20405;-87
2022/04/30 00:56:50;;;;;;;13.32;7.72;;;;;;;12.37;59.06;99686.28;5002245;28;20068;-87
2022/04/30 00:59:17;;;;;;;9.85;7.95;;;;;;;12.32;59.12;99682.72;5006127;28;20082;-87
2022/04/30 01:01:43;;;;;;;10.65;7.63;;;;;;;12.32;59.57;99686.19;5010633;28;20489;-87
2022/04/30 01:04:09;;;;;;;10.15;7.85;;;;;;;12.16;59.15;99667.41;5010841;28;20017;-87
2022/04/30 01:06:55;;;;;;;13.13;8.80;;;;;;;12.29;59.20;99686.69;4993849;28;20030;-87
2022/04/30 01:09:28;;;;;;;11.63;8.55;;;;;;;12.16;59.53;99678.13;4991814;28;20116;-87
2022/04/30 01:12:08;;;;;;;10.10;7.85;;;;;;;12.13;60.37;99673.22;4995842;28;20042;-87
2022/04/30 01:14:34;;;;;;;10.63;7.47;;;;;;;12.09;60.13;99678.25;5009627;28;20033;-87
2022/04/30 01:17:02;;;;;;;11.43;7.75;;;;;;;12.12;60.00;99672.44;5022546;28;20040;-87
2022/04/30 01:19:27;;;;;;;12.05;8.20;;;;;;;12.04;60.51;99684.31;4988177;28;20033;-87
2022/04/30 01:21:56;;;;;;;11.25;7.90;;;;;;;12.00;59.95;99663.63;4991951;28;20030;-87
2022/04/30 01:24:24;;;;;;;14.35;10.32;;;;;;;12.09;60.21;99674.75;5005136;28;20032;-87
2022/04/30 01:26:55;;;;;;;10.68;7.53;;;;;;;12.10;60.05;99676.41;5012231;28;20062;-87
2022/04/30 01:29:23;;;;;;;11.43;7.43;;;;;;;12.08;60.58;99681.19;4988816;28;20041;-87
2022/04/30 01:37:24;;;;;;;11.98;7.90;;;;;;;12.06;60.72;99704.69;5010701;28;20460;-87
2022/04/30 01:39:57;;;;;;;9.77;7.93;;;;;;;11.92;60.74;99683.56;5009334;28;20120;-87
2022/04/30 01:42:25;;;;;;;18.73;8.70;;;;;;;11.89;61.15;99694.72;4993522;28;20469;-87
2022/04/30 01:44:50;;;;;;;16.67;9.13;;;;;;;11.97;60.52;99688.16;4989910;28;20025;-87
2022/04/30 01:47:17;;;;;;;12.18;7.93;;;;;;;11.87;60.54;99678.09;5007029;28;20485;-87
2022/04/30 01:49:43;;;;;;;14.23;8.15;;;;;;;11.88;59.91;99684.25;5003820;28;20021;-87
2022/04/30 01:52:09;;;;;;;11.82;7.45;;;;;;;11.84;60.69;99694.59;4997351;28;20092;-87
2022/04/30 01:54:35;;;;;;;9.75;7.82;;;;;;;11.74;61.10;99690.91;4973103;28;20041;-87
2022/04/30 01:57:01;;;;;;;10.40;8.15;;;;;;;11.71;60.80;99686.00;4989501;28;20041;-87
2022/04/30 01:59:26;;;;;;;15.90;9.77;;;;;;;11.72;61.77;99683.13;4999932;28;20539;-87
2022/04/30 02:01:51;;;;;;;13.13;7.75;;;;;;;11.67;61.62;99668.81;4992673;28;20025;-87
2022/04/30 02:04:18;;;;;;;13.10;8.73;;;;;;;11.73;61.48;99684.72;5011536;28;20413;-87
2022/04/30 02:06:45;;;;;;;13.80;8.55;;;;;;;11.64;61.80;99675.41;5012943;28;20037;-87
2022/04/30 02:09:10;;;;;;;9.70;7.15;;;;;;;11.71;61.39;99678.81;4991077;28;20187;-88
2022/04/30 02:11:38;;;;;;;13.90;8.00;;;;;;;11.71;61.17;99681.47;5009717;28;20060;-88
2022/04/30 02:14:05;;;;;;;12.07;8.75;;;;;;;11.69;61.77;99678.22;5004161;28;20048;-88
2022/04/30 02:16:32;;;;;;;14.52;9.40;;;;;;;11.76;61.62;99678.91;5009104;28;20034;-88
2022/04/30 02:18:59;;;;;;;11.10;7.78;;;;;;;11.77;61.40;99675.19;5009451;28;20036;-88
2022/04/30 02:21:29;;;;;;;9.23;7.72;;;;;;;11.56;61.50;99662.41;5008469;28;20481;-88
2022/04/30 02:23:57;;;;;;;13.77;7.85;;;;;;;11.54;61.56;99642.28;5026090;28;20021;-88
2022/04/30 02:26:25;;;;;;;14.30;8.25;;;;;;;11.61;61.84;99667.88;4974405;28;20356;-87
2022/04/30 02:28:51;;;;;;;12.13;7.75;;;;;;;11.61;61.23;99664.38;4975317;28;20053;-87
2022/04/30 02:31:25;;;;;;;13.43;8.90;;;;;;;11.57;61.81;99657.88;4996349;28;20029;-87
2022/04/30 02:33:51;;;;;;;11.50;7.65;;;;;;;11.59;62.07;99656.59;5011859;28;20033;-87
2022/04/30 02:36:17;;;;;;;12.32;8.45;;;;;;;11.48;61.63;99653.94;4982186;28;20130;-87
2022/04/30 02:38:43;;;;;;;12.75;8.25;;;;;;;11.56;62.25;99657.06;4994163;28;20192;-87
2022/04/30 02:41:08;;;;;;;11.32;8.10;;;;;;;11.47;61.89;99665.66;5011295;28;20351;-87
2022/04/30 02:43:33;;;;;;;10.73;8.20;;;;;;;11.50;61.85;99658.00;4993938;28;20128;-87
2022/04/30 02:45:58;;;;;;;17.58;8.52;;;;;;;11.29;62.21;99637.22;4997216;28;20423;-87
2022/04/30 02:48:24;;;;;;;12.35;7.95;;;;;;;11.48;61.67;99654.75;5012908;28;20034;-87
2022/04/30 02:50:51;;;;;;;12.55;7.88;;;;;;;11.41;62.23;99654.06;4994966;28;20041;-87
2022/04/30 02:53:17;;;;;;;13.23;7.78;;;;;;;11.37;62.69;99660.91;5008859;28;20025;-87
2022/04/30 02:55:42;;;;;;;14.40;7.47;;;;;;;11.41;62.55;99654.06;4996862;28;20491;-87
2022/04/30 03:00:52;;;;;;;9.63;7.65;;;;;;;11.26;62.84;99649.19;5025821;28;20545;-87
2022/04/30 03:03:18;;;;;;;15.80;7.47;;;;;;;11.30;62.17;99642.34;5010504;28;20029;-87
2022/04/30 03:05:45;;;;;;;11.05;8.13;;;;;;;11.29;62.48;99655.94;5032688;28;20050;-87
2022/04/30 03:08:12;;;;;;;14.32;8.18;;;;;;;11.25;62.33;99644.06;5019001;28;20037;-88
2022/04/30 03:10:42;;;;;;;9.65;7.43;;;;;;;11.33;62.12;99646.41;5004891;28;20069;-87
2022/04/30 03:13:07;;;;;;;14.27;7.85;;;;;;;11.24;62.79;99640.59;4995360;28;20493;-87
2022/04/30 03:15:34;;;;;;;11.88;7.78;;;;;;;11.15;62.83;99635.81;4990037;28;20041;-87
2022/04/30 03:23:28;;;;;;;8.88;6.70;;;;;;;11.11;62.36;99630.16;5012256;28;20105;-87
2022/04/30 03:25:54;;;;;;;14.05;8.60;;;;;;;11.09;62.43;99634.09;4983130;28;20115;-87
2022/04/30 03:28:19;;;;;;;14.32;7.75;;;;;;;11.06;62.87;99626.53;4979407;28;20120;-87
2022/04/30 03:30:46;;;;;;;12.80;7.50;;;;;;;11.17;62.35;99633.75;4991935;28;20112;-87
2022/04/30 03:33:12;;;;;;;14.70;8.07;;;;;;;11.21;63.02;99638.38;4978913;28;20114;-87
2022/04/30 03:35:39;;;;;;;13.20;7.50;;;;;;;11.13;62.40;99636.06;5013774;28;20505;-88
2022/04/30 03:38:07;;;;;;;11.80;7.65;;;;;;;11.15;63.08;99638.50;5008899;28;20606;-88
2022/04/30 03:40:34;;;;;;;13.45;8.40;;;;;;;11.11;62.72;99638.16;5001271;28;20508;-88
2022/04/30 03:43:01;;;;;;;11.60;8.13;;;;;;;11.07;62.85;99631.63;4993000;28;20512;-88
2022/04/30 03:45:27;;;;;;;14.20;8.50;;;;;;;11.12;62.61;99644.28;4996344;28;20378;-88
2022/04/30 03:47:52;;;;;;;43.28;9.68;;;;;;;11.04;63.09;99636.63;5008108;28;20030;-88
2022/04/30 03:50:17;;;;;;;29.45;9.18;;;;;;;10.99;62.93;99640.00;4973316;28;20124;-88
2022/04/30 03:52:43;;;;;;;21.85;8.88;;;;;;;10.98;63.01;99645.59;4973612;28;20037;-88
2022/04/30 03:55:09;;;;;;;14.57;7.80;;;;;;;11.05;62.99;99636.41;4993093;28;20044;-88
2022/04/30 03:57:34;;;;;;;19.17;8.63;;;;;;;10.97;62.77;99641.28;5013338;28;20056;-88
2022/04/30 04:00:00;;;;;;;13.75;7.82;;;;;;;11.04;63.39;99632.13;5017664;28;20025;-88
2022/04/30 04:02:25;;;;;;;14.93;8.05;;;;;;;10.95;63.18;99632.69;4978269;28;20103;-87
2022/04/30 04:04:52;;;;;;;23.73;8.43;;;;;;;11.06;63.11;99640.72;5008626;28;20029;-87
2022/04/30 04:07:18;;;;;;;11.43;8.23;;;;;;;11.03;62.90;99641.16;4993805;28;20025;-87
2022/04/30 04:09:43;;;;;;;10.40;7.60;;;;;;;11.01;63.07;99637.91;5007581;28;20037;-87
2022/04/30 04:12:09;;;;;;;12.55;7.57;;;;;;;10.94;63.25;99639.88;4979170;28;20447;-87
2022/04/30 04:20:03;;;;;;;11.60;7.50;;;;;;;10.90;62.94;99640.59;5006788;28;20084;-88
2022/04/30 04:22:29;;;;;;;12.40;8.55;;;;;;;10.90;63.10;99637.94;4993744;28;20037;-88
2022/04/30 04:27:38;;;;;;;11.27;7.60;;;;;;;10.92;63.06;99633.16;4999354;28;20072;-88
2022/04/30 04:30:04;;;;;;;12.65;7.82;;;;;;;10.84;63.23;99631.63;4992941;28;20485;-88
2022/04/30 04:32:29;;;;;;;12.05;7.82;;;;;;;11.00;63.20;99638.16;5009221;28;20044;-88
2022/04/30 04:34:55;;;;;;;14.25;8.73;;;;;;;10.86;63.37;99637.56;4994060;28;20493;-87
2022/04/30 04:37:20;;;;;;;15.38;9.00;;;;;;;10.84;62.94;99636.16;4987708;28;20128;-87
2022/04/30 04:39:45;;;;;;;12.18;7.78;;;;;;;10.70;63.93;99618.72;4998711;28;20025;-87
2022/04/30 04:42:10;;;;;;;11.68;7.38;;;;;;;10.73;63.76;99637.78;4988284;28;20030;-87
2022/04/30 04:44:36;;;;;;;12.05;8.25;;;;;;;10.84;63.58;99647.66;4997801;28;20033;-87
2022/04/30 04:47:02;;;;;;;13.40;7.65;;;;;;;10.75;63.79;99641.03;5008890;28;20029;-87
2022/04/30 04:49:28;;;;;;;14.23;9.27;;;;;;;10.72;63.97;99636.16;5010440;28;20025;-87
2022/04/30 04:51:54;;;;;;;10.98;7.47;;;;;;;10.72;63.65;99633.50;5008769;28;20033;-88
2022/04/30 04:54:20;;;;;;;14.07;8.88;;;;;;;10.76;63.52;99645.34;4993445;28;20041;-88
2022/04/30 04:56:45;;;;;;;11.85;7.30;;;;;;;10.70;63.95;99640.09;5012240;28;20016;-88
2022/04/30 04:59:13;;;;;;;14.00;8.00;;;;;;;10.70;63.97;99640.09;4988175;28;20037;-88
2022/04/30 05:01:40;;;;;;;13.30;8.43;;;;;;;10.70;63.28;99640.09;5006954;28;20033;-88
2022/04/30 05:04:06;;;;;;;15.43;8.15;;;;;;;10.74;64.17;99651.94;4994360;28;20393;-88
2022/04/30 05:06:32;;;;;;;13.23;6.82;;;;;;;10.77;63.72;99644.28;5008578;28;20039;-88
2022/04/30 05:08:57;;;;;;;11.48;7.65;;;;;;;10.76;64.11;99641.84;5018673;28;20481;-88
2022/04/30 05:11:23;;;;;;;13.75;7.88;;;;;;;10.66;63.83;99642.38;5009348;28;20444;-88
2022/04/30 05:13:48;;;;;;;17.85;8.93;;;;;;;10.57;64.21;99632.28;4977326;28;20398;-88
2022/04/30 05:16:13;;;;;;;14.00;8.55;;;;;;;10.68;64.05;99648.31;4989945;28;20386;-88
2022/04/30 05:18:39;;;;;;;12.50;7.57;;;;;;;10.72;63.71;99649.50;4990681;28;20417;-88
2022/04/30 05:21:04;;;;;;;14.23;8.55;;;;;;;10.76;63.90;99647.19;4992823;28;20053;-88
2022/04/30 05:23:31;;;;;;;10.50;7.60;;;;;;;10.71;63.71;99642.53;4993142;28;20032;-88
2022/04/30 05:25:56;;;;;;;10.82;8.18;;;;;;;10.79;64.02;99649.41;4992886;28;20045;-87
2022/04/30 05:28:22;;;;;;;16.70;7.47;;;;;;;10.74;64.49;99649.28;4986968;28;20392;-87
2022/04/30 05:30:47;;;;;;;14.45;7.72;;;;;;;10.66;64.15;99647.72;4996546;28;20037;-87
2022/04/30 05:33:12;;;;;;;16.50;8.23;;;;;;;10.72;64.05;99648.69;4994024;28;20120;-87
2022/04/30 05:35:38;;;;;;;14.60;8.00;;;;;;;10.66;64.28;99646.94;4977281;28;20030;-88
2022/04/30 05:38:03;;;;;;;15.25;7.47;;;;;;;10.63;64.41;99644.72;4977241;28;20469;-88
2022/04/30 05:40:29;;;;;;;8.80;6.47;;;;;;;10.65;63.76;99647.97;4979775;28;20024;-87
2022/04/30 05:42:54;;;;;;;9.45;6.90;;;;;;;10.65;64.12;99631.94;5009573;28;20049;-87
2022/04/30 05:45:20;;;;;;;10.77;6.72;;;;;;;10.68;64.47;99636.84;4991879;28;20029;-87
2022/04/30 05:47:45;;;;;;;9.65;7.03;;;;;;;10.68;64.30;99634.19;4987288;28;20449;-86
2022/04/30 05:50:10;;;;;;;12.48;7.45;;;;;;;10.69;64.20;99638.44;4977355;28;20033;-87
2022/04/30 05:52:36;;;;;;;14.85;7.47;;;;;;;10.63;64.42;99624.19;4986738;28;20452;-87
2022/04/30 05:55:02;;;;;;;9.90;6.07;;;;;;;10.69;64.23;99636.59;4978147;28;20108;-87
2022/04/30 05:57:28;;;;;;;11.23;7.05;;;;;;;10.70;64.54;99627.56;4991211;28;20400;-87
2022/04/30 05:59:54;;;;;;;14.13;7.18;;;;;;;10.81;64.17;99644.63;5004206;28;20022;-87
2022/04/30 06:02:19;;;;;;;12.45;7.40;;;;;;;10.72;64.31;99624.66;5011186;28;20085;-87
2022/04/30 06:04:46;;;;;;;15.13;6.53;;;;;;;10.78;63.97;99650.44;4978609;28;20026;-87
2022/04/30 06:07:12;;;;;;;8.93;7.47;;;;;;;10.78;64.17;99647.75;4987742;28;20090;-88
2022/04/30 06:09:37;;;;;;;10.32;7.05;;;;;;;10.82;64.38;99646.25;5008207;28;20045;-87
2022/04/30 06:12:03;;;;;;;12.80;6.90;;;;;;;10.85;64.88;99646.63;5023437;28;20029;-87
2022/04/30 06:14:28;;;;;;;9.98;6.68;;;;;;;10.95;64.22;99654.03;4991258;28;20111;-87
2022/04/30 06:16:55;;;;;;;8.07;6.60;;;;;;;10.95;64.73;99656.72;4976034;28;20041;-87
2022/04/30 06:19:21;;;;;;;15.75;7.15;;;;;;;11.08;64.22;99678.69;4990484;28;20036;-87
2022/04/30 06:21:48;;;;;;;10.63;6.72;;;;;;;11.03;63.95;99656.41;5007167;28;20029;-88
2022/04/30 06:24:14;;;;;;;9.57;7.53;;;;;;;11.05;64.07;99651.63;5001542;28;20072;-87
2022/04/30 06:26:39;;;;;;;9.45;6.55;;;;;;;11.17;63.39;99671.97;5006552;28;20133;-87
2022/04/30 06:29:05;;;;;;;9.02;7.05;;;;;;;11.30;64.01;99668.25;4978046;28;20124;-88
2022/04/30 06:31:30;;;;;;;12.23;6.65;;;;;;;11.24;63.52;99653.16;4988824;28;20457;-88
2022/04/30 06:33:56;;;;;;;12.02;6.95;;;;;;;11.37;63.98;99668.13;5009133;28;20040;-87
2022/04/30 06:36:22;;;;;;;10.63;6.05;;;;;;;11.40;63.41;99665.00;4977126;28;20032;-87
2022/04/30 06:38:48;;;;;;;11.02;6.18;;;;;;;11.58;63.16;99662.97;4979195;28;20032;-87
2022/04/30 06:41:13;;;;;;;12.93;6.00;;;;;;;11.67;62.83;99666.13;5018562;28;20026;-88
2022/04/30 06:43:41;;;;;;;10.43;7.15;;;;;;;11.64;62.67;99662.03;4986539;28;20188;-87
2022/04/30 06:46:07;;;;;;;12.02;6.80;;;;;;;11.63;62.56;99668.44;4996051;28;20041;-88
2022/04/30 06:48:32;;;;;;;10.50;6.38;;;;;;;11.60;62.43;99668.91;4987155;28;20080;-88
2022/04/30 06:50:59;;;;;;;15.88;6.68;;;;;;;11.69;62.39;99674.75;5010809;28;20116;-88
2022/04/30 06:58:55;;;;;;;11.02;6.75;;;;;;;11.66;62.60;99665.31;5008389;28;20091;-87
2022/04/30 07:01:30;;;;;;;9.55;6.20;;;;;;;11.80;62.03;99653.31;5005486;28;20037;-87
2022/04/30 07:04:01;;;;;;;11.00;5.73;;;;;;;11.83;62.23;99662.75;5007409;28;20025;-87
2022/04/30 07:06:30;;;;;;;12.88;6.47;;;;;;;11.77;62.40;99672.50;5032492;28;20674;-87
2022/04/30 07:08:56;;;;;;;10.95;6.45;;;;;;;11.82;62.38;99666.44;5002645;28;20041;-87
2022/04/30 07:11:22;;;;;;;11.98;5.80;;;;;;;11.89;62.07;99667.13;4975373;28;20033;-87
2022/04/30 07:13:47;;;;;;;12.88;6.65;;;;;;;11.96;61.76;99663.28;4991091;28;20028;-87
2022/04/30 07:16:12;;;;;;;8.45;6.03;;;;;;;12.09;61.59;99672.09;5027932;28;20025;-87
2022/04/30 07:18:38;;;;;;;13.27;5.55;;;;;;;12.10;61.65;99663.03;4977319;28;20482;-87
2022/04/30 07:21:04;;;;;;;9.75;6.40;;;;;;;12.07;61.33;99666.16;4990431;28;20024;-87
2022/04/30 07:23:30;;;;;;;10.93;6.07;;;;;;;12.06;61.96;99669.91;4983583;28;20040;-87
2022/04/30 07:25:55;;;;;;;12.65;6.38;;;;;;;12.11;61.28;99665.44;4980533;28;20029;-87
2022/04/30 07:28:22;;;;;;;12.02;5.95;;;;;;;12.20;61.29;99668.56;5005505;28;20048;-87
2022/04/30 07:30:47;;;;;;;7.53;5.70;;;;;;;12.12;61.54;99675.13;5000721;28;20063;-87
2022/04/30 07:33:13;;;;;;;9.60;6.10;;;;;;;12.09;61.53;99669.41;5004681;28;20499;-87
2022/04/30 07:35:38;;;;;;;9.25;6.15;;;;;;;12.12;61.28;99668.94;5030027;28;20040;-87
2022/04/30 07:38:03;;;;;;;8.85;5.32;;;;;;;12.16;61.34;99673.59;5003767;28;20039;-87
2022/04/30 07:40:29;;;;;;;7.25;5.47;;;;;;;12.16;61.46;99672.75;5008942;28;20473;-87
2022/04/30 07:42:54;;;;;;;6.88;6.18;;;;;;;12.30;61.31;99677.59;5010461;28;20743;-86
2022/04/30 07:45:20;;;;;;;12.55;7.05;;;;;;;12.35;61.30;99684.91;4995598;28;20381;-85
2022/04/30 07:47:45;;;;;;;9.32;6.35;;;;;;;12.34;60.99;99669.91;4995724;28;20094;-87
2022/04/30 07:50:10;;;;;;;6.68;5.93;;;;;;;12.33;61.60;99676.31;4986007;28;20078;-87
2022/04/30 07:52:36;;;;;;;7.63;6.22;;;;;;;12.29;61.39;99672.47;4986765;28;20044;-87
2022/04/30 07:55:02;;;;;;;7.65;6.05;;;;;;;12.31;61.20;99668.53;4988941;28;20072;-87
2022/04/30 07:57:28;;;;;;;8.85;5.88;;;;;;;12.43;61.23;99668.44;4979143;28;20037;-87
2022/04/30 07:59:53;;;;;;;9.93;6.57;;;;;;;12.49;61.22;99675.53;4974733;28;20033;-87
2022/04/30 08:02:19;;;;;;;12.80;6.18;;;;;;;12.44;61.25;99675.44;5007531;28;20108;-87
2022/04/30 08:04:45;;;;;;;8.80;5.85;;;;;;;12.40;61.37;99669.75;4990948;28;20072;-88
2022/04/30 08:07:10;;;;;;;8.00;6.15;;;;;;;12.67;60.49;99681.47;5020904;28;20057;-87
2022/04/30 08:09:35;;;;;;;13.88;6.57;;;;;;;12.62;61.24;99675.25;4998770;28;20486;-87
2022/04/30 08:12:01;;;;;;;8.95;6.18;;;;;;;12.73;61.08;99685.09;4988431;28;20057;-87
2022/04/30 08:14:26;;;;;;;11.15;6.40;;;;;;;12.80;60.66;99677.69;4978139;28;20491;-87
2022/04/30 08:16:51;;;;;;;12.23;6.88;;;;;;;12.82;60.50;99679.06;4978087;28;20103;-87
2022/04/30 08:19:17;;;;;;;12.60;6.57;;;;;;;12.96;59.87;99678.75;4992558;28;20385;-87
2022/04/30 08:21:43;;;;;;;11.25;6.43;;;;;;;12.97;60.15;99673.16;4986080;28;20033;-87
2022/04/30 08:24:08;;;;;;;11.30;5.95;;;;;;;13.00;60.19;99661.13;4976650;28;20033;-87
2022/04/30 08:26:33;;;;;;;8.57;6.63;;;;;;;13.07;60.23;99672.53;4990649;28;20516;-88
2022/04/30 08:28:59;;;;;;;8.80;6.47;;;;;;;13.14;60.46;99678.53;4996809;28;20401;-88
2022/04/30 08:31:24;;;;;;;8.55;5.88;;;;;;;13.19;60.19;99667.91;5005454;28;20084;-87
2022/04/30 08:33:49;;;;;;;9.43;6.93;;;;;;;13.37;59.86;99675.66;4983798;28;20038;-87
2022/04/30 08:36:15;;;;;;;12.35;7.38;;;;;;;13.25;60.30;99678.47;4988607;28;20079;-87
2022/04/30 08:38:40;;;;;;;10.18;6.95;;;;;;;13.16;59.93;99669.22;4984208;28;20427;-87
2022/04/30 08:41:10;;;;;;;9.95;6.95;;;;;;;13.15;59.95;99656.84;4999810;28;20033;-87
2022/04/30 08:43:38;;;;;;;7.88;6.68;;;;;;;13.29;59.67;99663.50;5002952;28;20036;-87
2022/04/30 08:46:04;;;;;;;13.05;6.85;;;;;;;13.33;59.93;99666.50;4985886;28;20612;-87
2022/04/30 08:48:32;;;;;;;11.27;6.72;;;;;;;13.39;59.47;99669.00;5000603;28;20116;-87
2022/04/30 08:50:58;;;;;;;10.30;6.43;;;;;;;13.48;59.64;99667.53;4967261;28;20030;-87
2022/04/30 08:53:24;;;;;;;7.55;6.38;;;;;;;13.49;59.38;99671.84;4995388;28;21056;-87
2022/04/30 08:55:49;;;;;;;8.85;6.13;;;;;;;13.45;59.69;99670.69;5007408;28;20025;-86
2022/04/30 08:58:15;;;;;;;9.32;6.20;;;;;;;13.56;59.31;99663.63;4977197;28;20504;-87
2022/04/30 09:00:46;;;;;;;8.88;6.20;;;;;;;13.62;59.44;99678.72;4978488;28;20029;-86
2022/04/30 09:03:19;;;;;;;8.80;6.45;;;;;;;13.63;59.35;99668.81;5007051;28;20087;-87
2022/04/30 09:05:45;;;;;;;11.38;6.70;;;;;;;13.65;59.22;99669.38;4996449;28;20462;-86
2022/04/30 09:08:11;;;;;;;8.43;5.88;;;;;;;13.69;59.01;99670.50;4999291;28;20035;-87
2022/04/30 09:10:42;;;;;;;10.70;6.25;;;;;;;13.69;59.13;99674.00;4991976;28;20507;-87
2022/04/30 09:13:15;;;;;;;6.97;6.18;;;;;;;13.70;59.44;99674.78;4991473;28;20440;-87
2022/04/30 09:15:44;;;;;;;10.10;6.30;;;;;;;13.66;59.08;99657.56;4980562;28;20037;-86
2022/04/30 09:18:11;;;;;;;8.63;5.90;;;;;;;13.72;59.53;99675.34;4977616;28;20026;-87
2022/04/30 09:20:47;;;;;;;11.05;6.95;;;;;;;13.72;59.22;99670.78;4983357;28;20037;-87
2022/04/30 09:23:30;;;;;;;10.52;6.60;;;;;;;13.80;58.78;99670.38;5007340;28;20036;-87
2022/04/30 09:25:59;;;;;;;8.98;6.20;;;;;;;13.84;58.62;99654.59;4991833;28;20095;-87
2022/04/30 09:28:48;;;;;;;11.65;7.30;;;;;;;13.81;59.16;99663.13;5010901;28;20095;-87
2022/04/30 09:31:18;;;;;;;8.35;6.75;;;;;;;13.79;58.87;99662.56;4997950;28;20520;-85
2022/04/30 09:33:56;;;;;;;9.57;6.15;;;;;;;13.81;59.02;99653.22;4997253;28;20435;-85
2022/04/30 09:39:18;;;;;;;8.15;5.93;;;;;;;14.06;58.83;99658.91;5011368;28;20176;-85
2022/04/30 09:41:46;;;;;;;10.63;6.20;;;;;;;14.19;58.50;99669.25;5008265;28;20025;-85
2022/04/30 09:44:16;;;;;;;8.05;6.13;;;;;;;14.22;58.18;99647.25;5020391;28;20036;-85
2022/04/30 09:46:44;;;;;;;12.73;6.80;;;;;;;14.22;58.24;99643.75;5008957;28;20032;-87
2022/04/30 09:54:41;;;;;;;8.73;6.75;;;;;;;14.27;58.00;99630.38;4997415;28;20555;-86
2022/04/30 09:57:08;;;;;;;8.18;5.72;;;;;;;14.43;58.00;99631.38;4993401;28;20378;-85
2022/04/30 09:59:38;;;;;;;7.88;6.35;;;;;;;14.73;57.04;99634.34;5005785;28;20512;-85
2022/04/30 10:02:06;;;;;;;9.77;6.28;;;;;;;14.56;57.29;99642.53;4994579;28;20022;-86
2022/04/30 10:04:32;;;;;;;15.15;7.18;;;;;;;14.69;57.56;99634.06;5006235;28;20488;-86
2022/04/30 10:07:05;;;;;;;11.13;6.25;;;;;;;14.84;57.31;99634.19;4992664;28;20040;-86
2022/04/30 10:09:36;;;;;;;10.82;5.97;;;;;;;14.83;57.26;99629.84;4995063;28;20413;-85
2022/04/30 10:12:04;;;;;;;8.70;6.32;;;;;;;14.88;56.83;99643.34;5009352;28;20037;-86
2022/04/30 10:14:51;;;;;;;9.52;6.18;;;;;;;14.83;56.75;99618.31;5018281;28;20087;-86
2022/04/30 10:17:19;;;;;;;11.57;6.53;;;;;;;14.98;57.08;99639.94;5015490;28;20394;-86
2022/04/30 10:19:55;;;;;;;9.15;6.53;;;;;;;14.95;56.45;99614.38;4991946;28;20044;-86
2022/04/30 10:22:20;;;;;;;8.13;6.38;;;;;;;14.94;56.73;99614.59;5017582;28;20025;-85
2022/04/30 10:24:49;;;;;;;10.25;6.15;;;;;;;15.07;56.90;99621.44;4963101;28;20734;-85
2022/04/30 10:30:03;;;;;;;7.28;6.15;;;;;;;14.96;57.01;99612.50;4969262;28;20033;-85
2022/04/30 10:32:39;;;;;;;10.38;6.55;;;;;;;15.12;56.68;99616.91;5004109;28;20034;-85
2022/04/30 10:35:05;;;;;;;10.45;7.00;;;;;;;15.23;56.64;99615.06;5024835;28;20021;-85
2022/04/30 10:37:36;;;;;;;10.57;6.70;;;;;;;15.45;56.33;99623.84;4990220;28;20041;-85
2022/04/30 10:40:04;;;;;;;12.15;6.90;;;;;;;15.50;55.89;99605.88;4999890;28;20034;-85
2022/04/30 10:42:39;;;;;;;7.55;6.50;;;;;;;15.92;55.30;99613.03;5002406;28;20033;-85
2022/04/30 10:45:13;;;;;;;7.80;6.10;;;;;;;15.89;55.82;99617.06;5018909;28;20103;-86
2022/04/30 10:47:58;;;;;;;8.32;6.90;;;;;;;15.99;55.41;99595.53;5008056;28;20032;-85
2022/04/30 10:50:24;;;;;;;8.35;6.15;;;;;;;16.06;55.59;99597.97;5021424;28;20120;-84
2022/04/30 10:52:54;;;;;;;11.00;6.63;;;;;;;16.12;54.73;99603.13;4991864;28;20648;-84
2022/04/30 10:55:20;;;;;;;11.98;7.03;;;;;;;16.29;54.49;99597.50;4978255;28;20091;-84
2022/04/30 10:57:46;;;;;;;9.65;7.43;;;;;;;16.36;54.88;99601.53;4993797;28;20295;-85
2022/04/30 11:00:13;;;;;;;22.05;8.60;;;;;;;16.29;54.35;99589.44;5015197;28;20481;-86
2022/04/30 11:02:39;;;;;;;40.22;11.05;;;;;;;16.21;54.16;99604.22;5015083;28;20125;-86
2022/04/30 11:05:05;;;;;;;28.63;9.70;;;;;;;16.00;54.24;99596.34;4992789;28;21113;-87
2022/04/30 11:07:31;;;;;;;16.38;8.65;;;;;;;16.01;54.64;99590.69;4991749;28;20339;-86
2022/04/30 11:09:57;;;;;;;14.20;8.18;;;;;;;16.02;54.81;99592.34;5028622;28;20033;-86
2022/04/30 11:12:33;;;;;;;16.50;7.75;;;;;;;16.13;54.25;99591.28;5009314;28;20096;-86
2022/04/30 11:14:59;;;;;;;12.18;8.73;;;;;;;16.20;54.44;99581.06;4990687;28;20044;-87
2022/04/30 11:17:25;;;;;;;12.55;7.93;;;;;;;16.12;54.23;99568.09;5030922;28;20087;-86
2022/04/30 11:19:51;;;;;;;11.23;7.95;;;;;;;16.23;54.47;99588.59;4995435;28;20052;-86
2022/04/30 11:22:19;;;;;;;15.80;7.50;;;;;;;16.22;54.02;99578.09;5010615;28;20067;-86
2022/04/30 11:24:45;;;;;;;16.35;8.05;;;;;;;16.16;54.30;99582.66;5027986;28;20036;-86
2022/04/30 11:27:12;;;;;;;13.75;7.75;;;;;;;16.30;53.69;99582.94;4995891;28;20033;-86
2022/04/30 11:29:52;;;;;;;7.50;6.43;;;;;;;16.26;53.78;99582.69;5009435;28;20064;-86
2022/04/30 11:32:26;;;;;;;8.38;6.20;;;;;;;16.15;53.95;99578.34;4984790;28;20125;-86
2022/04/30 11:35:00;;;;;;;9.10;6.53;;;;;;;16.16;53.92;99569.19;5011450;28;20448;-86
2022/04/30 11:37:25;;;;;;;9.25;6.68;;;;;;;16.04;54.37;99573.22;4996207;28;20040;-86
2022/04/30 11:39:50;;;;;;;8.82;6.65;;;;;;;16.03;53.96;99572.38;5004604;28;20492;-86
2022/04/30 11:42:16;;;;;;;8.60;5.68;;;;;;;16.15;54.23;99583.75;4998235;28;20029;-86
2022/04/30 11:44:41;;;;;;;8.32;6.25;;;;;;;16.06;54.24;99577.25;4982050;28;20500;-86
2022/04/30 11:47:09;;;;;;;9.88;6.40;;;;;;;16.15;53.90;99575.66;4998275;28;20078;-86
2022/04/30 11:49:35;;;;;;;8.68;5.75;;;;;;;16.03;54.33;99582.38;5012221;28;20415;-85
2022/04/30 11:52:00;;;;;;;6.97;5.43;;;;;;;16.04;54.37;99570.50;5030895;28;20032;-86
2022/04/30 11:54:27;;;;;;;7.88;5.22;;;;;;;16.01;54.76;99573.75;4981227;28;20509;-85
2022/04/30 11:56:53;;;;;;;8.15;5.20;;;;;;;16.05;54.37;99581.03;5021817;28;20044;-88
2022/04/30 11:59:30;;;;;;;9.35;4.88;;;;;;;16.05;55.02;99581.03;5016897;28;20112;-88
2022/04/30 12:02:00;;;;;;;6.82;4.72;;;;;;;16.03;54.50;99582.38;5027218;28;20029;-88
2022/04/30 12:04:25;;;;;;;8.57;5.50;;;;;;;15.91;54.76;99579.91;5004725;28;20172;-88